Time;durP1;ratioP1;P1;durP2;ratioP2;P2;SDS_P1;SDS_P2;PMS_P1;PMS_P2;Temp;Humidity;BMP_temperature;BMP_pressure;BME280_temperature;BME280_humidity;BME280_pressure;Samples;Min_cycle;Max_cycle;Signal;HPM_P1;HPM_P2
2022/12/07 00:04:41;;;;;;;0.70;0.43;;;;;;;15.29;82.99;101173.19;20930313;28;20156;-84
2022/12/07 00:14:43;;;;;;;0.75;0.57;;;;;;;15.83;83.09;101262.28;20950445;28;20080;-84
2022/12/07 00:24:44;;;;;;;1.02;0.63;;;;;;;15.48;83.32;101213.81;20944110;28;20429;-84
2022/12/07 00:34:46;;;;;;;0.93;0.40;;;;;;;15.81;83.06;101260.56;20944541;28;20060;-84
2022/12/07 00:44:47;;;;;;;0.40;0.40;;;;;;;15.80;83.01;101242.75;20945240;28;20058;-84
2022/12/07 00:54:49;;;;;;;0.40;0.40;;;;;;;15.80;82.93;101242.75;20946354;28;20509;-84
2022/12/07 01:04:50;;;;;;;1.35;0.43;;;;;;;15.46;82.91;101186.22;20942261;28;20076;-84
2022/12/07 01:14:52;;;;;;;0.80;0.50;;;;;;;15.59;82.88;101202.25;20937685;28;20048;-84
2022/12/07 01:24:53;;;;;;;0.60;0.30;;;;;;;15.80;83.04;101231.19;20935397;28;20040;-84
2022/12/07 01:34:55;;;;;;;1.20;0.40;;;;;;;15.79;82.76;101243.72;20940044;28;20113;-84
2022/12/07 01:45:18;;;;;;;0.85;0.43;;;;;;;15.78;82.90;101239.34;20941757;28;20876;-84
2022/12/07 01:55:20;;;;;;;0.80;0.50;;;;;;;15.78;82.76;101239.34;20942023;28;20048;-84
2022/12/07 02:05:23;;;;;;;1.10;0.45;;;;;;;15.78;82.91;101239.34;20942807;28;20492;-84
2022/12/07 02:15:36;;;;;;;0.95;0.45;;;;;;;15.45;82.84;101184.50;20928716;28;20048;-84
2022/12/07 02:26:02;;;;;;;0.40;0.40;;;;;;;15.78;82.83;101228.59;20941445;28;20129;-84
2022/12/07 02:36:07;;;;;;;0.77;0.40;;;;;;;15.34;82.76;101163.84;20949398;28;20058;-84
2022/12/07 02:46:17;;;;;;;1.15;0.40;;;;;;;15.54;82.84;101192.84;20960661;28;20045;-84
2022/12/07 02:56:41;;;;;;;0.70;0.50;;;;;;;15.76;82.59;101224.31;20928733;28;20082;-84
2022/12/07 03:06:48;;;;;;;0.20;0.20;;;;;;;15.77;82.81;101204.56;20957314;28;20056;-84
2022/12/07 03:16:53;;;;;;;0.40;0.38;;;;;;;15.51;82.91;101180.50;20935377;28;20136;-84
2022/12/07 03:27:01;;;;;;;0.20;0.20;;;;;;;15.48;82.71;101178.94;20938731;28;20582;-84
2022/12/07 03:37:06;;;;;;;0.80;0.40;;;;;;;15.74;82.58;101211.00;20945019;28;20079;-84
2022/12/07 03:47:22;;;;;;;0.40;0.30;;;;;;;15.76;82.52;101198.31;20954865;28;20070;-84
2022/12/07 03:57:25;;;;;;;0.47;0.38;;;;;;;15.74;82.62;101200.28;20962509;28;20040;-84
2022/12/07 04:07:26;;;;;;;0.35;0.22;;;;;;;15.63;82.34;101176.91;20911014;28;20044;-84
2022/12/07 04:17:28;;;;;;;1.15;0.47;;;;;;;15.74;82.52;101194.91;20943553;28;20050;-84
2022/12/07 04:27:29;;;;;;;0.50;0.22;;;;;;;15.60;82.33;101179.81;20942158;28;20469;-84
2022/12/07 04:37:31;;;;;;;0.88;0.32;;;;;;;15.73;82.53;101193.19;20959175;28;20044;-84
2022/12/07 04:47:32;;;;;;;1.02;0.35;;;;;;;15.49;82.44;101142.22;20949228;28;20045;-84
2022/12/07 04:57:34;;;;;;;0.30;0.25;;;;;;;15.72;82.38;101179.91;20957775;28;20122;-84
2022/12/07 05:07:35;;;;;;;0.82;0.28;;;;;;;15.61;82.29;101178.84;20939496;28;20048;-84
2022/12/07 05:17:37;;;;;;;0.70;0.30;;;;;;;15.71;82.21;101173.66;20939624;28;20052;-84
2022/12/07 05:27:38;;;;;;;0.88;0.35;;;;;;;15.51;82.21;101141.13;20955994;28;20052;-84
2022/12/07 05:37:40;;;;;;;0.73;0.30;;;;;;;15.72;82.27;101174.53;20954564;28;20044;-84
2022/12/07 05:47:41;;;;;;;0.32;0.32;;;;;;;15.71;82.20;101170.13;20920470;28;20052;-84
2022/12/07 05:59:22;;;;;;;0.45;0.20;;;;;;;15.72;82.14;101169.16;20943162;28;20624;-84
2022/12/07 06:08:04;;;;;;;0.80;0.30;;;;;;;15.54;82.04;101141.88;20930061;28;20049;-84
2022/12/07 06:18:06;;;;;;;0.45;0.30;;;;;;;15.70;82.24;101166.56;20949751;28;20135;-84
2022/12/07 06:28:08;;;;;;;0.52;0.25;;;;;;;15.70;81.95;101171.94;20923717;28;20044;-84
2022/12/07 06:38:09;;;;;;;0.20;0.20;;;;;;;15.72;81.88;101171.84;20960787;28;20131;-84
2022/12/07 06:48:11;;;;;;;0.43;0.25;;;;;;;15.60;82.02;101149.47;20920173;28;20510;-84
2022/12/07 06:58:12;;;;;;;0.43;0.20;;;;;;;15.72;82.14;101170.00;20960943;28;20443;-88
2022/12/07 07:08:14;;;;;;;0.30;0.20;;;;;;;15.74;81.91;101199.44;20987896;28;20052;-94
2022/12/07 07:18:24;;;;;;;1.08;0.30;;;;;;;15.73;82.33;101178.94;20943969;28;20059;-90
2022/12/07 07:28:26;;;;;;;1.55;0.30;;;;;;;15.72;82.05;101183.44;20918738;28;20052;-91
2022/12/07 07:38:27;;;;;;;0.75;0.30;;;;;;;15.62;82.22;101160.94;20951097;28;20048;-93
2022/12/07 07:48:29;;;;;;;1.27;0.32;;;;;;;15.72;82.52;101187.94;20931565;28;20049;-94
2022/12/07 07:58:30;;;;;;;2.70;0.77;;;;;;;15.79;83.37;101208.00;20934831;28;20053;-85
2022/12/07 08:08:32;;;;;;;2.50;0.40;;;;;;;15.49;83.67;101163.66;20938733;28;20036;-84
2022/12/07 08:18:36;;;;;;;1.67;0.50;;;;;;;15.90;83.17;101209.88;20917454;28;20500;-84
2022/12/07 08:28:38;;;;;;;0.90;0.40;;;;;;;15.94;82.87;101198.81;20910335;28;20048;-84
2022/12/07 08:38:41;;;;;;;1.75;0.55;;;;;;;15.91;82.88;101195.50;20931159;28;20049;-84
2022/12/07 08:49:01;;;;;;;1.38;0.43;;;;;;;15.83;82.79;101173.69;20911700;28;20098;-84
2022/12/07 08:59:04;;;;;;;2.80;0.70;;;;;;;16.06;82.90;101196.16;20928447;28;20078;-88
2022/12/07 09:09:06;;;;;;;1.10;0.47;;;;;;;16.09;83.05;101191.41;20892903;28;20170;-85
2022/12/07 09:19:08;;;;;;;1.58;0.60;;;;;;;16.12;82.64;101197.53;20924673;28;20442;-86
2022/12/07 09:29:09;;;;;;;1.77;0.70;;;;;;;16.15;82.41;101208.03;20915098;28;20084;-84
2022/12/07 09:39:11;;;;;;;2.42;0.73;;;;;;;16.13;82.50;101199.22;20917427;28;20094;-87
2022/12/07 09:49:17;;;;;;;1.40;0.55;;;;;;;16.23;82.57;101203.78;20919092;28;20035;-86
2022/12/07 09:59:18;;;;;;;1.30;0.60;;;;;;;15.88;82.61;101160.81;20970254;28;20051;-86
2022/12/07 10:09:21;;;;;;;1.25;0.60;;;;;;;16.27;82.52;101207.09;20946301;28;20059;-86
2022/12/07 10:19:36;;;;;;;1.48;0.75;;;;;;;16.07;82.51;101163.81;20975459;28;20222;-86
2022/12/07 10:29:38;;;;;;;1.10;0.43;;;;;;;16.09;82.38;101177.97;20982137;28;20117;-86
2022/12/07 10:39:50;;;;;;;1.38;0.60;;;;;;;16.29;82.25;101188.16;20960673;28;20059;-86
2022/12/07 10:50:27;;;;;;;0.80;0.50;;;;;;;16.31;82.22;101172.78;20943684;28;20405;-86
2022/12/07 11:00:36;;;;;;;1.45;0.70;;;;;;;16.09;82.15;101128.78;20945867;28;20044;-86
2022/12/07 11:10:57;;;;;;;2.33;0.60;;;;;;;16.00;82.05;101114.25;20938830;28;20051;-85
2022/12/07 11:21:40;;;;;;;0.70;0.47;;;;;;;16.29;82.12;101143.34;20913032;28;20049;-83
2022/12/07 11:32:07;;;;;;;1.33;0.70;;;;;;;16.33;81.95;101142.13;20671416;28;20056;-88
2022/12/07 11:42:14;;;;;;;1.02;0.50;;;;;;;16.33;82.05;101136.75;20905633;28;20128;-86
2022/12/07 11:52:40;;;;;;;0.68;0.30;;;;;;;16.33;81.84;101120.63;20900968;28;20417;-85
2022/12/07 12:02:57;;;;;;;1.73;0.60;;;;;;;16.26;81.81;101100.59;20922646;28;20060;-86
2022/12/07 12:13:22;;;;;;;2.47;0.60;;;;;;;16.34;81.98;101095.47;20952371;28;20059;-85
2022/12/07 12:24:03;;;;;;;1.67;0.52;;;;;;;16.18;81.88;101054.69;20955687;28;20063;-86
2022/12/07 12:34:30;;;;;;;1.27;0.50;;;;;;;16.35;81.94;101085.59;20957863;28;20058;-86
2022/12/07 12:44:32;;;;;;;0.93;0.38;;;;;;;16.35;81.83;101064.97;20967102;28;20040;-85
2022/12/07 12:54:35;;;;;;;0.73;0.40;;;;;;;16.35;81.77;101062.28;20981939;28;20071;-85
2022/12/07 13:05:07;;;;;;;0.45;0.30;;;;;;;16.36;81.65;101050.56;20975910;28;20048;-86
2022/12/07 13:15:31;;;;;;;0.30;0.30;;;;;;;15.92;81.66;100960.94;20990786;28;20048;-86
2022/12/07 13:25:38;;;;;;;1.15;0.45;;;;;;;16.36;81.62;101042.50;20985032;28;20102;-85
2022/12/07 13:35:39;;;;;;;0.88;0.50;;;;;;;16.24;81.70;101014.78;20942848;28;20044;-86
2022/12/07 13:45:50;;;;;;;0.85;0.40;;;;;;;16.17;81.55;100988.50;20951894;28;20060;-86
2022/12/07 13:55:52;;;;;;;0.60;0.40;;;;;;;16.36;81.42;101012.06;20935697;28;20047;-85
2022/12/07 14:06:04;;;;;;;1.48;0.30;;;;;;;16.36;80.97;101017.44;20899820;28;20145;-86
2022/12/07 14:16:20;;;;;;;1.08;0.55;;;;;;;16.27;80.39;101000.22;20942278;28;20051;-89
2022/12/07 14:26:22;;;;;;;1.50;0.52;;;;;;;16.42;78.77;101008.03;20930546;28;20082;-91
2022/12/07 14:36:24;;;;;;;0.32;0.30;;;;;;;16.44;79.51;101006.09;20922666;28;20071;-86
2022/12/07 14:46:25;;;;;;;1.33;0.50;;;;;;;16.44;79.99;101011.47;20939522;28;20048;-87
2022/12/07 14:56:27;;;;;;;0.95;0.50;;;;;;;16.42;80.42;100989.22;20938709;28;20049;-88
2022/12/07 15:06:29;;;;;;;1.08;0.43;;;;;;;16.06;81.11;100933.84;20957794;28;20405;-87
2022/12/07 15:16:30;;;;;;;0.85;0.43;;;;;;;16.16;81.31;100962.63;20982329;28;20459;-87
2022/12/07 15:26:52;;;;;;;0.90;0.68;;;;;;;15.95;81.89;100917.75;20969215;28;20048;-87
2022/12/07 15:36:54;;;;;;;0.40;0.40;;;;;;;16.37;82.22;100993.16;20985690;28;20048;-87
2022/12/07 15:46:56;;;;;;;1.33;0.47;;;;;;;16.38;82.58;100970.69;20964482;28;20048;-87
2022/12/07 15:56:57;;;;;;;0.57;0.35;;;;;;;16.36;82.79;100964.56;20931978;28;20053;-88
2022/12/07 16:06:59;;;;;;;0.45;0.28;;;;;;;16.37;83.18;100944.78;20931426;28;20052;-88
2022/12/07 16:17:00;;;;;;;0.45;0.35;;;;;;;16.36;83.47;100940.41;20932141;28;20543;-89
2022/12/07 16:27:02;;;;;;;0.40;0.30;;;;;;;16.37;83.73;100927.78;20924946;28;20470;-91
2022/12/07 16:37:03;;;;;;;0.77;0.30;;;;;;;16.37;84.04;100930.50;20926278;28;20049;-88
2022/12/07 16:47:06;;;;;;;1.30;0.40;;;;;;;16.38;83.68;100919.63;20957569;28;20044;-94
2022/12/07 16:57:08;;;;;;;0.85;0.30;;;;;;;16.18;83.56;100880.09;20910473;28;20055;-92
2022/12/07 17:07:09;;;;;;;4.10;0.88;;;;;;;16.30;83.73;100883.63;20926204;28;20063;-89
2022/12/07 17:17:11;;;;;;;1.60;0.50;;;;;;;16.07;84.35;100841.53;20957707;28;20057;-93
2022/12/07 17:27:12;;;;;;;1.25;0.40;;;;;;;16.42;84.61;100893.34;20926760;28;20098;-94
2022/12/07 17:37:14;;;;;;;1.92;0.65;;;;;;;16.42;85.02;100876.38;20959418;28;20053;-90
2022/12/07 17:47:17;;;;;;;1.85;0.80;;;;;;;16.43;85.47;100873.56;20935310;28;20055;-92
2022/12/07 17:57:18;;;;;;;4.97;1.00;;;;;;;16.44;85.72;100863.66;20955493;28;20071;-88
2022/12/07 18:07:20;;;;;;;3.85;1.02;;;;;;;16.47;85.46;100868.78;20921237;28;20051;-90
2022/12/07 18:17:21;;;;;;;5.97;1.33;;;;;;;16.35;84.83;100839.28;20922456;28;20960;-89
2022/12/07 18:27:23;;;;;;;7.55;1.42;;;;;;;16.50;84.41;100847.03;20958296;28;20044;-89
2022/12/07 18:37:26;;;;;;;4.07;1.25;;;;;;;16.30;84.00;100795.78;20957269;28;20789;-88
2022/12/07 18:47:27;;;;;;;4.07;1.10;;;;;;;16.49;85.58;100830.03;20930026;28;20054;-88
2022/12/07 18:57:32;;;;;;;1.38;0.90;;;;;;;16.41;87.06;100824.47;20940571;28;20143;-90
2022/12/07 19:07:34;;;;;;;4.60;0.98;;;;;;;16.00;87.72;100754.44;20926003;28;20109;-88
2022/12/07 19:17:35;;;;;;;2.95;0.95;;;;;;;16.24;89.20;100797.19;20927827;28;20067;-90
2022/12/07 19:27:37;;;;;;;3.05;0.85;;;;;;;16.19;89.85;100785.97;20906213;28;20045;-92
2022/12/07 19:37:38;;;;;;;3.90;0.80;;;;;;;15.94;90.42;100739.66;20946708;28;20554;-88
2022/12/07 19:47:40;;;;;;;2.38;1.02;;;;;;;16.13;90.81;100758.75;20961015;28;20048;-88
2022/12/07 19:57:41;;;;;;;2.53;0.82;;;;;;;16.11;91.28;100761.56;20930365;28;20136;-88
2022/12/07 20:07:43;;;;;;;3.13;0.70;;;;;;;16.01;91.16;100745.38;20930328;28;20080;-90
2022/12/07 20:17:44;;;;;;;2.05;0.75;;;;;;;15.97;91.57;100730.50;20958130;28;20052;-89
2022/12/07 20:27:46;;;;;;;2.42;0.90;;;;;;;16.06;91.76;100743.16;20956411;28;20052;-89
2022/12/07 20:37:47;;;;;;;3.28;0.70;;;;;;;15.94;91.82;100701.25;20961292;28;20044;-88
2022/12/07 20:47:49;;;;;;;1.20;0.80;;;;;;;16.02;91.65;100714.88;20941580;28;20087;-89
2022/12/07 20:57:50;;;;;;;2.25;0.60;;;;;;;16.03;91.83;100699.59;20942778;28;20048;-89
2022/12/07 21:07:51;;;;;;;1.63;0.70;;;;;;;15.92;91.78;100681.72;20959099;28;20056;-88
2022/12/07 21:17:53;;;;;;;2.38;0.70;;;;;;;15.80;91.84;100654.88;20950619;28;20041;-88
2022/12/07 21:27:54;;;;;;;1.52;0.63;;;;;;;16.00;91.67;100676.56;20956448;28;20066;-88
2022/12/07 21:37:56;;;;;;;1.58;0.45;;;;;;;15.80;91.48;100635.25;20923268;28;20094;-89
2022/12/07 21:47:57;;;;;;;1.55;0.52;;;;;;;16.00;91.58;100649.72;20955783;28;20105;-88
2022/12/07 21:57:59;;;;;;;1.92;0.80;;;;;;;15.98;91.56;100638.25;20938571;28;20127;-89
2022/12/07 22:08:02;;;;;;;1.05;0.50;;;;;;;15.48;91.26;100556.47;20954834;28;20094;-89
2022/12/07 22:18:04;;;;;;;0.73;0.40;;;;;;;15.97;91.32;100623.13;20946440;28;20044;-89
2022/12/07 22:28:05;;;;;;;1.77;0.50;;;;;;;15.55;90.99;100537.19;20921053;28;20045;-88
2022/12/07 22:38:06;;;;;;;0.82;0.40;;;;;;;15.94;90.81;100594.69;20945203;28;20040;-89
2022/12/07 22:48:14;;;;;;;1.63;0.50;;;;;;;15.69;90.67;100547.56;20968488;28;20061;-89
2022/12/07 22:58:16;;;;;;;1.02;0.50;;;;;;;15.94;90.62;100597.38;20950071;28;20162;-89
2022/12/07 23:08:27;;;;;;;1.33;0.70;;;;;;;15.93;90.30;100586.78;20950918;28;20437;-88
2022/12/07 23:18:29;;;;;;;0.63;0.40;;;;;;;15.94;90.33;100585.78;20958063;28;20052;-89
2022/12/07 23:28:31;;;;;;;0.80;0.47;;;;;;;15.92;90.00;100574.34;20965346;28;20056;-89
2022/12/07 23:38:32;;;;;;;0.80;0.40;;;;;;;15.93;90.05;100559.94;20965530;28;20048;-88
2022/12/07 23:48:34;;;;;;;0.40;0.32;;;;;;;15.79;89.94;100542.28;20962853;28;20052;-90
2022/12/07 23:58:36;;;;;;;1.00;0.52;;;;;;;15.81;89.53;100535.78;20945691;28;20048;-89
